createdAt,value
2023-08-17T00:01:56.055Z,91.50
2023-08-17T00:04:23.422Z,90.90
2023-08-17T00:06:54.924Z,91.50
2023-08-17T00:09:22.069Z,91.00
2023-08-17T00:11:49.483Z,90.70
2023-08-17T00:14:16.694Z,91.10
2023-08-17T00:16:43.810Z,90.50
2023-08-17T00:19:11.058Z,90.90
2023-08-17T00:21:39.001Z,90.70
2023-08-17T00:24:06.207Z,90.30
2023-08-17T00:26:33.340Z,90.30
2023-08-17T00:29:00.554Z,90.40
2023-08-17T00:31:27.681Z,90.20
2023-08-17T00:33:54.840Z,90.20
2023-08-17T00:36:22.079Z,90.00
2023-08-17T00:38:49.191Z,90.00
2023-08-17T00:41:16.438Z,90.00
2023-08-17T00:43:43.637Z,90.10
2023-08-17T00:46:12.202Z,89.80
2023-08-17T00:48:39.658Z,89.50
2023-08-17T00:51:32.746Z,89.50
2023-08-17T00:54:01.859Z,89.30
2023-08-17T00:56:29.339Z,89.50
2023-08-17T00:58:58.382Z,89.50
2023-08-17T01:01:35.089Z,89.50
2023-08-17T01:04:02.221Z,89.60
2023-08-17T01:06:29.355Z,89.60
2023-08-17T01:08:56.573Z,90.00
2023-08-17T01:11:33.851Z,90.10
2023-08-17T01:14:11.201Z,90.20
2023-08-17T01:16:49.145Z,90.20
2023-08-17T01:19:27.091Z,90.50
2023-08-17T01:22:15.871Z,90.50
2023-08-17T01:24:43.008Z,90.70
2023-08-17T01:27:10.538Z,90.50
2023-08-17T01:29:42.025Z,90.60
2023-08-17T01:32:25.677Z,90.70
2023-08-17T01:35:16.640Z,90.70
2023-08-17T01:37:45.758Z,90.80
2023-08-17T01:40:14.828Z,90.70
2023-08-17T01:42:44.248Z,90.80
2023-08-17T01:45:12.337Z,90.70
2023-08-17T01:47:39.555Z,90.90
2023-08-17T01:50:07.108Z,90.70
2023-08-17T01:52:40.286Z,90.60
2023-08-17T01:55:07.788Z,90.70
2023-08-17T01:57:34.968Z,90.60
2023-08-17T02:00:18.952Z,90.70
2023-08-17T02:02:46.600Z,90.50
2023-08-17T02:05:18.870Z,90.50
2023-08-17T02:07:46.102Z,90.50
2023-08-17T02:10:13.256Z,90.60
2023-08-17T02:12:46.786Z,90.50
2023-08-17T02:15:13.984Z,90.50
2023-08-17T02:17:41.183Z,90.40
2023-08-17T02:20:10.069Z,90.40
2023-08-17T02:22:47.423Z,90.40
2023-08-17T02:25:14.710Z,90.40
2023-08-17T02:27:41.798Z,90.30
2023-08-17T02:30:09.295Z,90.20
2023-08-17T02:32:36.693Z,90.10
2023-08-17T02:35:05.870Z,90.00
2023-08-17T02:37:39.495Z,90.00
2023-08-17T02:40:12.300Z,90.00
2023-08-17T02:43:18.023Z,90.00
2023-08-17T02:46:00.839Z,90.00
2023-08-17T02:48:29.041Z,90.00
2023-08-17T02:51:25.117Z,89.70
2023-08-17T02:54:12.030Z,89.70
2023-08-17T02:56:42.503Z,89.40
2023-08-17T02:59:09.608Z,89.20
2023-08-17T03:01:37.104Z,88.90
2023-08-17T03:04:05.025Z,89.10
2023-08-17T03:06:33.256Z,89.00
2023-08-17T03:09:00.400Z,89.10
2023-08-17T03:11:35.535Z,89.00
2023-08-17T03:14:02.864Z,88.90
2023-08-17T03:16:35.759Z,88.90
2023-08-17T03:19:03.042Z,88.70
2023-08-17T03:21:36.889Z,88.60
2023-08-17T03:24:04.504Z,88.60
2023-08-17T03:26:40.078Z,88.40
2023-08-17T03:29:07.228Z,88.30
2023-08-17T03:31:34.413Z,88.20
2023-08-17T03:34:02.287Z,88.10
2023-08-17T03:36:29.427Z,87.90
2023-08-17T03:38:56.649Z,87.80
2023-08-17T03:41:26.874Z,87.70
2023-08-17T03:43:54.005Z,87.70
2023-08-17T03:46:21.375Z,87.80
2023-08-17T03:48:48.704Z,88.10
2023-08-17T03:51:15.844Z,88.00
2023-08-17T03:53:43.481Z,87.80
2023-08-17T03:56:10.656Z,87.70
2023-08-17T03:59:04.118Z,87.30
2023-08-17T04:01:31.546Z,87.10
2023-08-17T04:03:58.825Z,86.80
2023-08-17T04:06:25.956Z,86.50
2023-08-17T04:08:53.081Z,86.40
2023-08-17T04:11:20.262Z,86.10
2023-08-17T04:13:47.432Z,86.30
2023-08-17T04:16:14.598Z,86.00
2023-08-17T04:18:42.901Z,85.90
2023-08-17T04:21:15.758Z,86.00
2023-08-17T04:23:42.992Z,86.10
2023-08-17T04:26:10.163Z,86.10
2023-08-17T04:28:44.426Z,85.90
2023-08-17T04:31:11.837Z,85.70
2023-08-17T04:33:39.138Z,85.50
2023-08-17T04:36:08.940Z,85.30
2023-08-17T04:38:36.129Z,85.20
2023-08-17T04:41:03.413Z,84.80
2023-08-17T04:43:30.644Z,83.40
2023-08-17T04:46:08.512Z,84.70
2023-08-17T04:48:35.770Z,84.40
2023-08-17T04:51:03.764Z,84.50
2023-08-17T04:53:30.965Z,84.20
2023-08-17T04:56:08.935Z,83.80
2023-08-17T04:58:36.118Z,84.30
2023-08-17T05:01:03.489Z,83.50
2023-08-17T05:03:33.568Z,82.70
2023-08-17T05:06:01.633Z,82.70
2023-08-17T05:08:28.975Z,81.70
2023-08-17T05:10:59.113Z,81.80
2023-08-17T05:13:26.301Z,81.30
2023-08-17T05:15:53.594Z,80.00
2023-08-17T05:18:20.816Z,80.20
2023-08-17T05:20:47.984Z,79.90
2023-08-17T05:23:30.195Z,79.30
2023-08-17T05:25:57.432Z,78.70
2023-08-17T05:28:24.688Z,76.80
2023-08-17T05:30:52.106Z,77.20
2023-08-17T05:33:19.246Z,77.00
2023-08-17T05:35:50.403Z,77.00
2023-08-17T05:38:17.532Z,76.10
2023-08-17T05:40:44.789Z,76.40
2023-08-17T05:43:12.246Z,75.60
2023-08-17T05:45:39.377Z,76.10
2023-08-17T05:48:08.155Z,75.10
2023-08-17T05:50:35.908Z,75.70
2023-08-17T05:53:03.127Z,75.80
2023-08-17T05:55:30.658Z,75.20
2023-08-17T05:57:57.807Z,74.50
2023-08-17T06:00:25.233Z,73.20
2023-08-17T06:02:52.716Z,73.40
2023-08-17T06:05:20.215Z,71.90
2023-08-17T06:07:47.383Z,72.10
2023-08-17T06:10:14.653Z,71.70
2023-08-17T06:12:43.031Z,71.80
2023-08-17T06:15:10.507Z,72.10
2023-08-17T06:17:40.421Z,72.70
2023-08-17T06:20:11.080Z,73.00
2023-08-17T06:22:38.671Z,73.20
2023-08-17T06:25:07.171Z,72.90
2023-08-17T06:27:34.838Z,73.10
2023-08-17T06:30:04.186Z,73.00
2023-08-17T06:32:32.125Z,72.50
2023-08-17T06:34:59.510Z,72.90
2023-08-17T06:37:27.111Z,72.90
2023-08-17T11:23:46.211Z,57.90
2023-08-17T11:26:17.571Z,52.10
2023-08-17T11:28:46.074Z,50.70
2023-08-17T11:31:17.101Z,49.60
2023-08-17T11:33:48.814Z,49.70
2023-08-17T11:36:16.363Z,49.60
2023-08-17T11:38:45.320Z,49.70
2023-08-17T11:43:45.487Z,48.50
2023-08-17T11:46:13.914Z,48.50
2023-08-17T11:48:41.478Z,47.60
2023-08-17T11:51:08.731Z,47.10
2023-08-17T11:53:40.958Z,47.10
2023-08-17T11:56:10.459Z,47.30
2023-08-17T11:58:47.296Z,46.50
2023-08-17T12:01:17.632Z,46.50
2023-08-17T12:03:45.796Z,46.30
2023-08-17T12:06:16.567Z,46.30
2023-08-17T12:08:48.063Z,46.00
2023-08-17T12:11:20.868Z,45.80
2023-08-17T12:13:54.910Z,46.70
2023-08-17T12:16:24.093Z,46.70
2023-08-17T12:18:53.869Z,46.50
2023-08-17T12:21:23.381Z,46.80
2023-08-17T12:23:51.068Z,46.70
2023-08-17T12:26:23.035Z,46.60
2023-08-17T12:28:51.383Z,46.20
2023-08-17T12:31:24.912Z,45.40
2023-08-17T16:26:41.578Z,60.60
2023-08-17T16:29:08.797Z,61.30
2023-08-17T16:31:36.974Z,59.70
2023-08-17T16:34:04.433Z,59.30
2023-08-17T16:36:36.314Z,59.30
2023-08-17T16:39:04.112Z,58.40
2023-08-17T16:41:31.283Z,58.30
2023-08-17T16:43:58.763Z,58.10
2023-08-17T16:46:26.200Z,58.20
2023-08-17T16:48:53.301Z,58.70
2023-08-17T16:51:20.362Z,59.20
2023-08-17T16:53:50.952Z,59.50
2023-08-17T16:56:18.332Z,59.10
2023-08-17T16:58:45.397Z,58.80
2023-08-17T17:01:15.184Z,58.80
2023-08-17T17:03:43.866Z,60.60
2023-08-17T17:06:12.502Z,60.90
2023-08-17T17:08:39.573Z,61.80
2023-08-17T17:11:06.744Z,62.30
2023-08-17T17:13:35.705Z,62.40
2023-08-17T17:16:03.266Z,62.90
2023-08-17T17:18:30.424Z,63.50
2023-08-17T17:20:57.530Z,63.80
2023-08-17T17:23:24.535Z,64.10
2023-08-17T17:25:51.635Z,64.60
2023-08-17T17:28:18.790Z,64.90
2023-08-17T17:30:45.893Z,65.20
2023-08-17T17:33:13.033Z,65.50
2023-08-17T17:35:40.098Z,66.00
2023-08-17T17:38:08.127Z,67.00
2023-08-17T17:40:35.252Z,66.70
2023-08-17T17:43:02.326Z,67.20
2023-08-17T17:45:29.496Z,67.30
2023-08-17T17:47:56.814Z,67.50
2023-08-17T17:50:24.124Z,67.70
2023-08-17T17:52:51.256Z,68.10
2023-08-17T17:55:18.456Z,68.40
2023-08-17T17:57:45.582Z,68.70
2023-08-17T18:00:14.613Z,68.90
2023-08-17T18:02:41.770Z,68.90
2023-08-17T18:05:14.270Z,69.20
2023-08-17T18:07:41.344Z,69.20
2023-08-17T18:10:09.295Z,69.20
2023-08-17T18:12:36.574Z,69.40
2023-08-17T18:15:04.249Z,69.60
2023-08-17T18:17:32.538Z,69.60
2023-08-17T18:19:59.905Z,69.90
2023-08-17T18:22:26.991Z,70.30
2023-08-17T18:24:54.378Z,70.40
2023-08-17T18:27:22.699Z,70.60
2023-08-17T18:29:49.864Z,71.70
2023-08-17T18:32:16.962Z,71.20
2023-08-17T18:34:44.009Z,71.40
2023-08-17T18:37:11.080Z,71.60
2023-08-17T18:39:38.197Z,71.70
2023-08-17T18:42:05.619Z,71.80
2023-08-17T18:44:32.663Z,72.00
2023-08-17T18:46:59.729Z,71.90
2023-08-17T18:49:26.837Z,72.10
2023-08-17T18:51:54.008Z,72.40
2023-08-17T18:54:21.027Z,72.40
2023-08-17T18:56:48.308Z,72.60
2023-08-17T18:59:15.447Z,72.60
2023-08-17T19:01:42.574Z,72.80
2023-08-17T19:04:09.710Z,72.90
2023-08-17T19:06:36.795Z,73.10
2023-08-17T19:09:04.633Z,73.20
2023-08-17T19:11:31.721Z,73.20
2023-08-17T19:13:58.835Z,73.10
2023-08-17T19:16:26.118Z,73.30
2023-08-17T19:18:53.263Z,73.40
2023-08-17T19:21:20.372Z,73.40
2023-08-17T19:23:47.503Z,73.30
2023-08-17T19:26:14.910Z,73.30
2023-08-17T19:28:41.996Z,73.40
2023-08-17T19:31:09.370Z,73.40
2023-08-17T19:33:36.394Z,73.50
2023-08-17T19:36:03.750Z,73.70
2023-08-17T19:38:30.852Z,73.70
2023-08-17T19:40:57.901Z,73.50
2023-08-17T19:43:25.020Z,73.40
2023-08-17T19:45:52.120Z,73.40
2023-08-17T19:48:19.227Z,73.70
2023-08-17T19:50:46.263Z,73.80
2023-08-17T19:53:13.336Z,73.80
2023-08-17T19:55:40.446Z,73.90
2023-08-17T19:58:07.566Z,74.10
2023-08-17T20:00:35.244Z,74.20
2023-08-17T20:03:02.578Z,74.40
2023-08-17T20:05:29.718Z,74.40
2023-08-17T20:07:56.914Z,74.40
2023-08-17T20:10:24.072Z,74.50
2023-08-17T20:12:51.201Z,74.60
2023-08-17T20:15:18.401Z,74.70
2023-08-17T20:17:45.524Z,74.70
2023-08-17T20:20:16.746Z,74.80
2023-08-17T20:22:45.395Z,74.90
2023-08-17T20:25:13.937Z,74.90
2023-08-17T20:27:45.999Z,75.00
2023-08-17T20:30:13.706Z,75.00
2023-08-17T20:32:40.839Z,75.00
2023-08-17T20:35:08.628Z,75.20
2023-08-17T20:37:35.900Z,75.20
2023-08-17T20:40:03.018Z,75.30
2023-08-17T20:42:30.086Z,75.40
2023-08-17T20:44:57.230Z,75.50
2023-08-17T20:47:24.600Z,75.60
2023-08-17T20:49:51.718Z,75.70
2023-08-17T20:52:19.196Z,75.90
2023-08-17T20:54:46.360Z,75.50
2023-08-17T20:57:14.579Z,75.30
2023-08-17T21:00:16.559Z,75.00
2023-08-17T21:02:43.691Z,75.00
2023-08-17T21:05:10.908Z,74.80
2023-08-17T21:07:38.432Z,74.90
2023-08-17T21:10:06.520Z,73.80
2023-08-17T21:12:33.684Z,74.10
2023-08-17T21:15:00.968Z,72.90
2023-08-17T21:17:28.462Z,72.40
2023-08-17T21:19:57.240Z,72.70
2023-08-17T21:22:24.454Z,73.30
2023-08-17T21:24:51.593Z,72.90
2023-08-17T21:27:18.722Z,72.20
2023-08-17T21:29:45.793Z,72.40
2023-08-17T21:32:13.180Z,71.70
2023-08-17T21:34:40.261Z,71.60
2023-08-17T21:37:10.940Z,71.70
2023-08-17T21:39:38.238Z,71.70
2023-08-17T21:42:05.868Z,71.70
2023-08-17T21:44:32.967Z,71.60
2023-08-17T21:47:00.085Z,71.50
2023-08-17T21:49:27.198Z,71.60
2023-08-17T21:51:54.244Z,71.80
2023-08-17T21:54:21.329Z,71.70
2023-08-17T21:56:48.431Z,71.50
2023-08-17T21:59:15.661Z,71.20
2023-08-17T22:01:42.782Z,71.10
2023-08-17T22:04:09.885Z,71.30
2023-08-17T22:06:38.548Z,71.20
2023-08-17T22:09:06.021Z,71.20
2023-08-17T22:11:33.114Z,71.20
2023-08-17T22:14:00.180Z,71.20
2023-08-17T22:16:27.342Z,71.00
2023-08-17T22:18:58.022Z,70.70
2023-08-17T22:21:25.208Z,71.10
2023-08-17T22:23:52.224Z,70.80
2023-08-17T22:26:19.289Z,70.70
2023-08-17T22:28:46.578Z,70.60
2023-08-17T22:31:14.072Z,70.70
2023-08-17T22:33:41.219Z,70.70
2023-08-17T22:36:08.432Z,71.20
2023-08-17T22:38:35.498Z,70.90
2023-08-17T22:41:02.552Z,70.80
2023-08-17T22:43:29.636Z,71.00
2023-08-17T22:45:56.708Z,70.80
2023-08-17T22:48:23.833Z,71.20
2023-08-17T22:50:50.937Z,71.10
2023-08-17T22:53:18.083Z,70.90
2023-08-17T22:55:45.174Z,71.00
2023-08-17T22:58:12.243Z,71.00
2023-08-17T23:00:40.269Z,70.90
2023-08-17T23:03:07.548Z,71.20
2023-08-17T23:05:34.861Z,71.30
2023-08-17T23:08:02.536Z,71.20
2023-08-17T23:10:29.688Z,71.70
2023-08-17T23:12:56.801Z,71.40
2023-08-17T23:15:24.167Z,71.60
2023-08-17T23:17:51.219Z,71.70
2023-08-17T23:20:18.390Z,71.80
2023-08-17T23:22:45.436Z,71.90
2023-08-17T23:25:12.560Z,72.00
2023-08-17T23:27:40.379Z,72.20
2023-08-17T23:30:08.307Z,72.20
2023-08-17T23:32:35.554Z,72.50
2023-08-17T23:35:02.789Z,72.30
2023-08-17T23:37:30.243Z,72.40
2023-08-17T23:39:57.602Z,73.20
2023-08-17T23:42:24.734Z,72.70
2023-08-17T23:44:51.770Z,72.80
2023-08-17T23:47:18.760Z,73.00
2023-08-17T23:49:46.006Z,73.30
2023-08-17T23:52:13.075Z,73.20
2023-08-17T23:54:40.212Z,73.30
2023-08-17T23:57:08.284Z,73.40
2023-08-17T23:59:35.533Z,73.50
